createdAt,value
2019-06-26T00:00:02.850Z,985.3
2019-06-26T00:01:04.142Z,985.2
2019-06-26T00:02:05.460Z,985.2
2019-06-26T00:03:07.119Z,985.2
2019-06-26T00:04:08.441Z,985.3
2019-06-26T00:05:09.725Z,985.2
2019-06-26T00:06:10.989Z,985.3
2019-06-26T00:07:12.324Z,985.3
2019-06-26T00:08:13.793Z,985.3
2019-06-26T00:09:15.051Z,985.3
2019-06-26T00:10:16.339Z,985.3
2019-06-26T00:11:17.625Z,985.2
2019-06-26T00:12:18.909Z,985.2
2019-06-26T00:13:27.491Z,985.3
2019-06-26T00:14:28.784Z,985.3
2019-06-26T00:15:30.065Z,985.3
2019-06-26T00:16:31.367Z,985.3
2019-06-26T00:17:32.772Z,985.3
2019-06-26T00:18:34.095Z,985.3
2019-06-26T00:19:35.391Z,985.4
2019-06-26T00:20:36.717Z,985.3
2019-06-26T00:21:37.991Z,985.3
2019-06-26T00:22:39.282Z,985.3
2019-06-26T00:23:40.611Z,985.3
2019-06-26T00:24:41.961Z,985.3
2019-06-26T00:25:43.265Z,985.2
2019-06-26T00:26:44.541Z,985.3
2019-06-26T00:27:45.892Z,985.3
2019-06-26T00:28:47.737Z,985.2
2019-06-26T00:29:49.034Z,985.3
2019-06-26T00:30:50.361Z,985.3
2019-06-26T00:31:51.657Z,985.3
2019-06-26T00:32:52.927Z,985.4
2019-06-26T00:33:54.493Z,985.3
2019-06-26T00:34:55.766Z,985.3
2019-06-26T00:35:57.049Z,985.3
2019-06-26T00:36:58.339Z,985.3
2019-06-26T00:37:59.619Z,985.4
2019-06-26T00:39:00.957Z,985.2
2019-06-26T00:40:02.341Z,985.3
2019-06-26T00:41:03.754Z,985.2
2019-06-26T00:42:05.079Z,985.3
2019-06-26T00:43:06.411Z,985.3
2019-06-26T00:44:07.733Z,985.3
2019-06-26T00:45:09.002Z,985.3
2019-06-26T00:46:10.283Z,985.4
2019-06-26T00:47:11.624Z,985.4
2019-06-26T00:48:12.894Z,985.4
2019-06-26T00:49:14.255Z,985.4
2019-06-26T00:50:15.572Z,985.3
2019-06-26T00:51:16.863Z,985.3
2019-06-26T00:52:18.147Z,985.3
2019-06-26T00:53:19.429Z,985.4
2019-06-26T00:54:20.869Z,985.3
2019-06-26T00:55:22.159Z,985.4
2019-06-26T00:56:23.441Z,985.5
2019-06-26T00:57:24.734Z,985.4
2019-06-26T00:58:26.024Z,985.3
2019-06-26T00:59:27.369Z,985.5
2019-06-26T01:00:28.645Z,985.4
2019-06-26T01:01:29.930Z,985.4
2019-06-26T01:02:31.218Z,985.5
2019-06-26T01:03:32.494Z,985.6
2019-06-26T01:04:34.340Z,985.6
2019-06-26T01:05:35.921Z,985.7
2019-06-26T01:06:37.183Z,985.6
2019-06-26T01:07:38.461Z,985.6
2019-06-26T01:08:39.764Z,985.5
2019-06-26T01:09:41.063Z,985.5
2019-06-26T01:10:42.341Z,985.4
2019-06-26T01:11:43.630Z,985.5
2019-06-26T01:12:44.890Z,985.5
2019-06-26T01:13:58.916Z,985.4
2019-06-26T01:15:00.229Z,985.5
2019-06-26T01:16:01.626Z,985.6
2019-06-26T01:17:02.953Z,985.6
2019-06-26T01:18:04.249Z,985.6
2019-06-26T01:19:05.556Z,985.3
2019-06-26T01:20:06.877Z,985.4
2019-06-26T01:21:08.252Z,985.5
2019-06-26T01:22:09.539Z,985.6
2019-06-26T01:23:10.852Z,985.6
2019-06-26T01:24:12.140Z,985.5
2019-06-26T01:25:13.460Z,985.6
2019-06-26T01:26:14.775Z,985.6
2019-06-26T01:27:16.083Z,985.6
2019-06-26T01:28:17.362Z,985.6
2019-06-26T01:29:18.713Z,985.7
2019-06-26T01:30:20.037Z,985.6
2019-06-26T01:31:21.319Z,985.5
2019-06-26T01:32:22.607Z,985.6
2019-06-26T01:33:23.894Z,985.6
2019-06-26T01:34:25.171Z,985.5
2019-06-26T01:35:26.557Z,985.6
2019-06-26T01:36:27.819Z,985.5
2019-06-26T01:37:29.204Z,985.3
2019-06-26T01:38:30.597Z,985.3
2019-06-26T01:39:31.921Z,985.5
2019-06-26T01:40:33.354Z,985.5
2019-06-26T01:41:34.638Z,985.6
2019-06-26T01:42:35.998Z,985.7
2019-06-26T01:43:51.668Z,985.7
2019-06-26T01:44:52.963Z,985.7
2019-06-26T01:45:54.315Z,985.3
2019-06-26T01:46:55.931Z,985.4
2019-06-26T01:47:57.218Z,985.5
2019-06-26T01:48:58.509Z,985.5
2019-06-26T01:49:59.794Z,985.6
2019-06-26T01:51:01.232Z,985.7
2019-06-26T01:52:02.537Z,985.6
2019-06-26T01:53:03.893Z,985.6
2019-06-26T01:54:05.190Z,985.7
2019-06-26T01:55:06.497Z,985.8
2019-06-26T01:56:07.820Z,985.7
2019-06-26T01:57:09.102Z,985.7
2019-06-26T01:58:10.374Z,985.8
2019-06-26T01:59:11.682Z,985.6
2019-06-26T02:00:13.107Z,985.5
2019-06-26T02:01:14.672Z,985.6
2019-06-26T02:02:15.949Z,985.7
2019-06-26T02:03:17.236Z,985.8
2019-06-26T02:04:18.496Z,985.3
2019-06-26T02:05:19.860Z,985.4
2019-06-26T02:06:21.200Z,985.4
2019-06-26T02:07:22.482Z,985.6
2019-06-26T02:08:23.774Z,985.6
2019-06-26T02:09:25.081Z,985.8
2019-06-26T02:10:26.386Z,985.7
2019-06-26T02:11:27.720Z,985.8
2019-06-26T02:12:29.022Z,985.7
2019-06-26T02:13:30.418Z,985.6
2019-06-26T02:14:32.605Z,985.7
2019-06-26T02:15:33.893Z,985.8
2019-06-26T02:16:35.205Z,985.7
2019-06-26T02:17:36.607Z,985.6
2019-06-26T02:18:37.912Z,985.7
2019-06-26T02:19:39.191Z,985.5
2019-06-26T02:20:40.528Z,985.4
2019-06-26T02:21:41.841Z,985.6
2019-06-26T02:22:43.927Z,985.6
2019-06-26T02:23:45.278Z,985.5
2019-06-26T02:24:46.574Z,985.5
2019-06-26T02:25:47.909Z,985.7
2019-06-26T02:26:49.226Z,985.8
2019-06-26T02:27:50.526Z,985.8
2019-06-26T02:28:51.850Z,985.7
2019-06-26T02:29:53.138Z,985.8
2019-06-26T02:30:54.423Z,985.7
2019-06-26T02:31:55.958Z,985.7
2019-06-26T02:32:57.254Z,985.7
2019-06-26T02:33:58.670Z,985.7
2019-06-26T02:34:59.953Z,985.6
2019-06-26T02:36:01.226Z,985.7
2019-06-26T02:37:02.610Z,985.6
2019-06-26T02:38:03.910Z,985.7
2019-06-26T02:39:05.223Z,985.8
2019-06-26T02:40:06.506Z,985.8
2019-06-26T02:41:07.815Z,985.8
2019-06-26T02:42:09.200Z,985.9
2019-06-26T02:43:10.500Z,985.9
2019-06-26T02:44:11.885Z,985.8
2019-06-26T02:45:13.219Z,985.8
2019-06-26T02:46:14.542Z,985.7
2019-06-26T02:47:21.708Z,985.8
2019-06-26T02:48:23.016Z,985.8
2019-06-26T02:49:24.312Z,985.7
2019-06-26T02:50:25.708Z,985.8
2019-06-26T02:51:26.990Z,985.9
2019-06-26T02:52:28.491Z,985.6
2019-06-26T02:53:29.858Z,985.8
2019-06-26T02:54:31.167Z,985.8
2019-06-26T02:55:32.804Z,985.8
2019-06-26T02:56:34.080Z,985.7
2019-06-26T02:57:35.521Z,985.8
2019-06-26T02:58:36.844Z,985.8
2019-06-26T02:59:38.171Z,985.8
2019-06-26T03:00:39.492Z,985.8
2019-06-26T03:01:40.820Z,985.8
2019-06-26T03:02:42.162Z,985.7
2019-06-26T03:03:43.464Z,985.8
2019-06-26T03:04:44.772Z,985.8
2019-06-26T03:05:46.100Z,985.9
2019-06-26T03:06:47.360Z,985.8
2019-06-26T03:07:48.747Z,985.9
2019-06-26T03:08:50.034Z,985.9
2019-06-26T03:09:51.336Z,985.8
2019-06-26T03:10:52.708Z,985.9
2019-06-26T03:11:53.996Z,985.9
2019-06-26T03:12:55.322Z,985.9
2019-06-26T03:13:56.622Z,985.8
2019-06-26T03:15:09.594Z,985.8
2019-06-26T03:16:13.856Z,985.8
2019-06-26T03:17:15.247Z,985.9
2019-06-26T03:18:16.548Z,985.9
2019-06-26T03:19:17.836Z,986.1
2019-06-26T03:20:19.134Z,986
2019-06-26T03:21:20.429Z,986
2019-06-26T03:22:21.733Z,986.1
2019-06-26T03:23:23.152Z,986.1
2019-06-26T03:24:24.411Z,986.1
2019-06-26T03:25:25.695Z,986
2019-06-26T03:26:27.004Z,986
2019-06-26T03:27:28.454Z,986.1
2019-06-26T03:28:29.767Z,986.1
2019-06-26T03:29:31.083Z,986.1
2019-06-26T03:30:32.362Z,986
2019-06-26T03:31:33.676Z,986
2019-06-26T03:32:34.986Z,986.1
2019-06-26T03:33:36.370Z,986.1
2019-06-26T03:34:37.868Z,986.2
2019-06-26T03:35:41.558Z,986.1
2019-06-26T03:36:42.850Z,986.1
2019-06-26T03:37:44.162Z,986.1
2019-06-26T03:38:45.499Z,986.2
2019-06-26T03:39:46.819Z,986.2
2019-06-26T03:40:48.125Z,985.8
2019-06-26T03:41:49.488Z,986.2
2019-06-26T03:42:50.855Z,986.3
2019-06-26T03:43:52.194Z,986.3
2019-06-26T03:44:53.500Z,986.3
2019-06-26T03:45:54.799Z,986.3
2019-06-26T03:46:56.106Z,986.3
2019-06-26T03:47:57.420Z,986.2
2019-06-26T03:48:58.772Z,986.3
2019-06-26T03:50:00.173Z,986.3
2019-06-26T03:51:01.592Z,986.2
2019-06-26T03:52:02.898Z,986.3
2019-06-26T03:53:04.204Z,986.3
2019-06-26T03:54:05.538Z,986.4
2019-06-26T03:55:06.885Z,986.4
2019-06-26T03:56:08.227Z,986.4
2019-06-26T03:57:09.561Z,986.4
2019-06-26T03:58:10.892Z,986.3
2019-06-26T03:59:12.262Z,986.4
2019-06-26T04:00:13.722Z,986.4
2019-06-26T04:01:17.787Z,986.3
2019-06-26T04:02:19.053Z,986.3
2019-06-26T04:03:20.324Z,986.4
2019-06-26T04:04:21.731Z,986.3
2019-06-26T04:05:23.382Z,986.4
2019-06-26T04:06:24.691Z,986.4
2019-06-26T04:07:26.005Z,986.4
2019-06-26T04:08:27.285Z,986.4
2019-06-26T04:09:28.656Z,986.4
2019-06-26T04:10:29.946Z,986.4
2019-06-26T04:11:31.255Z,986.4
2019-06-26T04:12:32.593Z,986.5
2019-06-26T04:13:34.031Z,986.3
2019-06-26T04:14:35.879Z,986.5
2019-06-26T04:15:43.238Z,986.4
2019-06-26T04:16:44.544Z,986.4
2019-06-26T04:17:45.840Z,986.5
2019-06-26T04:18:47.131Z,986.5
2019-06-26T04:19:48.511Z,986.6
2019-06-26T04:20:49.817Z,986.6
2019-06-26T04:21:51.121Z,986.6
2019-06-26T04:22:52.371Z,986.6
2019-06-26T04:23:53.661Z,986.7
2019-06-26T04:26:09.085Z,986.6
2019-06-26T04:27:10.372Z,986.6
2019-06-26T04:28:11.653Z,986.6
2019-06-26T04:29:12.943Z,986.8
2019-06-26T04:30:14.225Z,986.8
2019-06-26T04:31:15.623Z,986.7
2019-06-26T04:32:16.928Z,986.9
2019-06-26T04:33:18.519Z,987
2019-06-26T04:34:19.901Z,987
2019-06-26T04:35:21.237Z,987.1
2019-06-26T04:36:22.617Z,987
2019-06-26T04:37:24.504Z,987
2019-06-26T04:38:25.759Z,987
2019-06-26T04:39:27.039Z,986.9
2019-06-26T04:40:28.321Z,987
2019-06-26T04:41:29.661Z,987
2019-06-26T04:42:30.979Z,987
2019-06-26T04:43:32.287Z,987
2019-06-26T04:44:33.581Z,987
2019-06-26T04:45:34.891Z,987
2019-06-26T04:46:36.200Z,987.1
2019-06-26T04:47:37.629Z,987.1
2019-06-26T04:48:38.927Z,987.2
2019-06-26T04:49:40.262Z,987.2
2019-06-26T04:50:41.569Z,987.3
2019-06-26T04:51:42.888Z,987.2
2019-06-26T04:52:44.174Z,987.2
2019-06-26T04:53:45.494Z,987.3
2019-06-26T04:54:46.773Z,987.2
2019-06-26T04:55:48.081Z,987.3
2019-06-26T04:56:49.499Z,987.3
2019-06-26T04:57:50.783Z,987.4
2019-06-26T04:58:52.088Z,987.3
2019-06-26T04:59:53.334Z,987.4
2019-06-26T05:00:55.132Z,987.3
2019-06-26T05:01:56.472Z,987.4
2019-06-26T05:02:57.789Z,987.4
2019-06-26T05:03:59.055Z,987.4
2019-06-26T05:05:00.390Z,987.4
2019-06-26T05:06:01.639Z,987.4
2019-06-26T05:07:03.009Z,987.5
2019-06-26T05:08:04.640Z,987.3
2019-06-26T05:09:05.893Z,987.5
2019-06-26T05:10:07.238Z,987.5
2019-06-26T05:11:08.539Z,987.5
2019-06-26T05:12:09.878Z,987.6
2019-06-26T05:13:11.148Z,987.5
2019-06-26T05:14:12.428Z,987.6
2019-06-26T05:15:13.680Z,987.6
2019-06-26T05:16:20.347Z,987.5
2019-06-26T05:17:21.996Z,987.5
2019-06-26T05:18:23.257Z,987.6
2019-06-26T05:19:24.582Z,987.5
2019-06-26T05:20:25.930Z,987.5
2019-06-26T05:21:27.201Z,987.7
2019-06-26T05:22:28.518Z,987.6
2019-06-26T05:23:29.794Z,987.8
2019-06-26T05:24:31.074Z,987.8
2019-06-26T05:25:32.376Z,987.8
2019-06-26T05:26:33.659Z,987.8
2019-06-26T05:27:34.996Z,987.8
2019-06-26T05:28:36.304Z,987.7
2019-06-26T05:29:37.617Z,987.8
2019-06-26T05:30:38.941Z,987.7
2019-06-26T05:31:40.295Z,987.6
2019-06-26T05:32:41.677Z,987.8
2019-06-26T05:33:43.856Z,987.8
2019-06-26T05:34:45.251Z,987.9
2019-06-26T05:35:46.641Z,988
2019-06-26T05:36:47.927Z,988
2019-06-26T05:37:49.289Z,988
2019-06-26T05:38:50.594Z,988
2019-06-26T05:39:55.500Z,988.1
2019-06-26T05:40:56.770Z,988.1
2019-06-26T05:41:58.055Z,988.1
2019-06-26T05:42:59.365Z,988.2
2019-06-26T05:44:00.645Z,988.2
2019-06-26T05:45:02.006Z,988.1
2019-06-26T05:46:03.340Z,988.2
2019-06-26T05:47:07.851Z,988.1
2019-06-26T05:48:09.172Z,988.2
2019-06-26T05:49:10.442Z,988.2
2019-06-26T05:50:11.756Z,988.2
2019-06-26T05:51:13.022Z,988.1
2019-06-26T05:52:17.472Z,988.3
2019-06-26T05:53:18.766Z,988.2
2019-06-26T05:54:20.051Z,988.2
2019-06-26T05:55:21.344Z,988.3
2019-06-26T05:56:22.599Z,988.4
2019-06-26T05:57:23.874Z,988.3
2019-06-26T05:58:25.213Z,988.3
2019-06-26T05:59:28.908Z,988.1
2019-06-26T06:00:30.214Z,988.4
2019-06-26T06:01:31.684Z,988.5
2019-06-26T06:02:32.945Z,988.6
2019-06-26T06:03:34.303Z,988.7
2019-06-26T06:04:35.570Z,988.7
2019-06-26T06:05:36.862Z,988.8
2019-06-26T06:06:42.903Z,988.8
2019-06-26T06:07:44.193Z,988.7
2019-06-26T06:08:45.503Z,988.8
2019-06-26T06:09:46.758Z,988.8
2019-06-26T06:10:48.036Z,988.9
2019-06-26T06:11:49.320Z,988.8
2019-06-26T06:12:50.604Z,988.7
2019-06-26T06:13:51.988Z,988.7
2019-06-26T06:14:53.454Z,988.8
2019-06-26T06:15:54.718Z,988.8
2019-06-26T06:16:56.082Z,988.8
2019-06-26T06:17:57.403Z,988.7
2019-06-26T06:18:58.746Z,988.6
2019-06-26T06:20:00.682Z,988.7
2019-06-26T06:21:01.969Z,988.6
2019-06-26T06:22:03.337Z,988.7
2019-06-26T06:23:04.637Z,988.8
2019-06-26T06:24:05.938Z,988.8
2019-06-26T06:25:07.220Z,988.8
2019-06-26T06:26:08.640Z,988.8
2019-06-26T06:27:09.944Z,988.7
2019-06-26T06:28:11.748Z,988.8
2019-06-26T06:29:13.090Z,988.8
2019-06-26T06:30:14.403Z,988.9
2019-06-26T06:31:15.700Z,988.8
2019-06-26T06:32:17.007Z,988.9
2019-06-26T06:33:18.287Z,988.9
2019-06-26T06:34:19.643Z,988.9
2019-06-26T06:35:20.930Z,989
2019-06-26T06:36:22.243Z,988.9
2019-06-26T06:37:23.510Z,989
2019-06-26T06:38:25.385Z,989
2019-06-26T06:39:26.722Z,989
2019-06-26T06:40:27.981Z,989
2019-06-26T06:41:29.240Z,989
2019-06-26T06:42:30.541Z,989
2019-06-26T06:43:31.888Z,989.1
2019-06-26T06:44:33.332Z,989.1
2019-06-26T06:45:34.601Z,989.2
2019-06-26T06:46:35.883Z,989.2
2019-06-26T06:47:37.165Z,989.1
2019-06-26T06:48:38.478Z,989.2
2019-06-26T06:49:39.824Z,989.2
2019-06-26T06:50:41.082Z,989.2
2019-06-26T06:51:42.372Z,989.2
2019-06-26T06:52:43.662Z,989.2
2019-06-26T06:53:45.117Z,989.2
2019-06-26T06:54:46.532Z,989.2
2019-06-26T06:55:47.816Z,989.2
2019-06-26T06:56:49.088Z,989.3
2019-06-26T06:57:50.425Z,989.3
2019-06-26T06:58:51.708Z,989.4
2019-06-26T06:59:53.039Z,989.4
2019-06-26T07:00:54.404Z,989.3
2019-06-26T07:01:55.680Z,989.3
2019-06-26T07:02:57.046Z,989.3
2019-06-26T07:03:58.397Z,989.3
2019-06-26T07:04:59.854Z,989.3
2019-06-26T07:06:01.150Z,989.4
2019-06-26T07:07:02.558Z,989.4
2019-06-26T07:08:03.893Z,989.5
2019-06-26T07:09:05.164Z,989.5
2019-06-26T07:10:06.531Z,989.4
2019-06-26T07:11:07.840Z,989.4
2019-06-26T07:12:09.143Z,989.3
2019-06-26T07:13:10.441Z,989.4
2019-06-26T07:14:11.740Z,989.6
2019-06-26T07:15:13.082Z,989.5
2019-06-26T07:16:14.372Z,989.6
2019-06-26T07:17:21.550Z,989.6
2019-06-26T07:18:22.985Z,989.6
2019-06-26T07:19:24.370Z,989.6
2019-06-26T07:20:25.681Z,989.6
2019-06-26T07:21:26.957Z,989.6
2019-06-26T07:22:28.244Z,989.6
2019-06-26T07:23:29.633Z,989.6
2019-06-26T07:24:30.926Z,989.7
2019-06-26T07:25:32.299Z,989.6
2019-06-26T07:26:33.564Z,989.6
2019-06-26T07:27:34.855Z,989.7
2019-06-26T07:28:36.143Z,989.5
2019-06-26T07:29:37.486Z,989.7
2019-06-26T07:30:38.860Z,989.6
2019-06-26T07:31:40.175Z,989.6
2019-06-26T07:32:41.514Z,989.7
2019-06-26T07:33:42.819Z,989.8
2019-06-26T07:34:44.118Z,989.7
2019-06-26T07:35:45.762Z,989.7
2019-06-26T07:36:47.126Z,989.6
2019-06-26T07:37:48.446Z,989.7
2019-06-26T07:38:49.883Z,989.7
2019-06-26T07:39:51.183Z,989.5
2019-06-26T07:40:52.529Z,989.7
2019-06-26T07:41:53.833Z,989.8
2019-06-26T07:42:55.132Z,989.8
2019-06-26T07:43:56.495Z,989.8
2019-06-26T07:44:57.832Z,989.9
2019-06-26T07:45:59.157Z,989.9
2019-06-26T07:47:00.523Z,990
2019-06-26T07:48:01.845Z,990
2019-06-26T07:49:03.144Z,990
2019-06-26T07:50:04.543Z,989.9
2019-06-26T07:51:05.853Z,989.8
2019-06-26T07:52:07.591Z,989.9
2019-06-26T07:53:08.944Z,989.8
2019-06-26T07:54:10.504Z,989.8
2019-06-26T07:55:13.221Z,990
2019-06-26T07:56:15.538Z,989.9
2019-06-26T07:57:16.825Z,989.9
2019-06-26T07:58:18.086Z,989.8
2019-06-26T07:59:19.396Z,989.8
2019-06-26T08:00:20.744Z,989.8
2019-06-26T08:01:22.110Z,989.8
2019-06-26T08:02:23.418Z,989.8
2019-06-26T08:03:24.772Z,989.7
2019-06-26T08:04:27.259Z,989.8
2019-06-26T08:05:28.560Z,989.8
2019-06-26T08:06:29.886Z,989.9
2019-06-26T08:07:31.200Z,989.9
2019-06-26T08:08:32.508Z,990
2019-06-26T08:09:33.831Z,990.1
2019-06-26T08:10:35.122Z,990
2019-06-26T08:11:36.832Z,989.8
2019-06-26T08:12:38.135Z,989.9
2019-06-26T08:13:39.404Z,990
2019-06-26T08:14:40.764Z,990
2019-06-26T08:15:42.068Z,990
2019-06-26T08:16:43.401Z,990
2019-06-26T08:18:01.588Z,989.9
2019-06-26T08:19:03.082Z,989.9
2019-06-26T08:20:04.490Z,990
2019-06-26T08:21:13.408Z,989.9
2019-06-26T08:22:17.400Z,990.1
2019-06-26T08:23:18.714Z,989.9
2019-06-26T08:24:20.061Z,989.9
2019-06-26T08:25:21.348Z,989.9
2019-06-26T08:26:25.089Z,989.9
2019-06-26T08:27:26.972Z,989.9
2019-06-26T08:28:28.266Z,989.9
2019-06-26T08:29:29.551Z,989.7
2019-06-26T08:30:30.902Z,989.9
2019-06-26T08:31:32.187Z,989.9
2019-06-26T08:32:33.543Z,989.9
2019-06-26T08:33:35.440Z,990
2019-06-26T08:34:37.569Z,990.1
2019-06-26T08:35:39.074Z,990.1
2019-06-26T08:36:40.354Z,990.1
2019-06-26T08:37:41.697Z,990
2019-06-26T08:38:43.055Z,990.1
2019-06-26T08:39:44.415Z,990.1
2019-06-26T08:40:45.681Z,989.9
2019-06-26T08:41:46.997Z,989.8
2019-06-26T08:42:48.341Z,989.9
2019-06-26T08:43:49.707Z,989.8
2019-06-26T08:44:51.140Z,989.7
2019-06-26T08:45:52.502Z,989.9
2019-06-26T08:46:53.859Z,989.9
2019-06-26T08:47:55.226Z,989.9
2019-06-26T08:48:56.605Z,989.9
2019-06-26T08:49:58.126Z,990
2019-06-26T08:50:59.475Z,990.1
2019-06-26T08:52:00.831Z,990
2019-06-26T08:53:02.381Z,989.9
2019-06-26T08:54:05.525Z,989.9
2019-06-26T08:55:06.852Z,989.9
2019-06-26T08:56:08.155Z,989.9
2019-06-26T08:57:09.455Z,990
2019-06-26T08:58:11.205Z,989.9
2019-06-26T08:59:12.505Z,989.9
2019-06-26T09:00:13.795Z,989.8
2019-06-26T09:01:15.228Z,989.9
2019-06-26T09:02:16.526Z,989.9
2019-06-26T09:03:17.905Z,990
2019-06-26T09:04:19.172Z,990
2019-06-26T09:05:20.452Z,990
2019-06-26T09:06:21.841Z,989.9
2019-06-26T09:07:23.104Z,989.9
2019-06-26T09:08:24.720Z,989.8
2019-06-26T09:09:26.216Z,989.9
2019-06-26T09:10:27.554Z,989.9
2019-06-26T09:11:28.860Z,990
2019-06-26T09:12:30.276Z,989.9
2019-06-26T09:13:31.642Z,989.8
2019-06-26T09:14:33.004Z,989.9
2019-06-26T09:15:34.312Z,990
2019-06-26T09:16:35.694Z,989.7
2019-06-26T09:17:37.049Z,989.7
2019-06-26T09:18:38.475Z,989.6
2019-06-26T09:19:39.800Z,989.5
2019-06-26T09:20:41.104Z,989.5
2019-06-26T09:21:42.411Z,989.5
2019-06-26T09:22:43.699Z,989.5
2019-06-26T09:23:45.096Z,989.4
2019-06-26T09:24:46.398Z,989.5
2019-06-26T09:25:47.700Z,989.5
2019-06-26T09:26:50.156Z,989.5
2019-06-26T09:27:51.462Z,989.5
2019-06-26T09:28:52.837Z,989.5
2019-06-26T09:29:54.176Z,989.5
2019-06-26T09:30:55.507Z,989.5
2019-06-26T09:31:56.860Z,989.5
2019-06-26T09:32:58.190Z,989.5
2019-06-26T09:33:59.547Z,989.5
2019-06-26T09:35:00.876Z,989.5
2019-06-26T09:36:02.269Z,989.5
2019-06-26T09:37:03.715Z,989.5
2019-06-26T09:38:05.036Z,989.5
2019-06-26T09:39:06.404Z,989.5
2019-06-26T09:40:07.700Z,989.5
2019-06-26T09:41:09.041Z,989.5
2019-06-26T09:42:10.428Z,989.5
2019-06-26T09:43:12.242Z,989.5
2019-06-26T09:44:15.947Z,989.6
2019-06-26T09:45:18.014Z,989.5
2019-06-26T09:46:19.511Z,989.6
2019-06-26T09:47:20.839Z,989.5
2019-06-26T09:48:22.220Z,989.4
2019-06-26T09:49:23.823Z,989.5
2019-06-26T09:50:25.556Z,989.5
2019-06-26T09:51:27.392Z,989.5
2019-06-26T09:52:28.724Z,989.4
2019-06-26T09:53:47.804Z,989.5
2019-06-26T09:54:49.423Z,989.5
2019-06-26T09:55:50.732Z,989.5
2019-06-26T09:56:52.107Z,989.4
2019-06-26T09:57:55.831Z,989.5
2019-06-26T09:58:57.176Z,989.5
2019-06-26T09:59:58.571Z,989.3
2019-06-26T10:00:59.895Z,989.5
2019-06-26T10:02:01.188Z,989.5
2019-06-26T10:03:02.535Z,989.4
2019-06-26T10:04:03.951Z,989.5
2019-06-26T10:05:05.491Z,989.4
2019-06-26T10:06:06.773Z,989.4
2019-06-26T10:07:08.079Z,989.5
2019-06-26T10:08:09.335Z,989.4
2019-06-26T10:09:10.659Z,989.5
2019-06-26T10:10:12.085Z,989.5
2019-06-26T10:11:13.440Z,989.5
2019-06-26T10:12:14.739Z,989.5
2019-06-26T10:13:16.070Z,989.4
2019-06-26T10:14:17.482Z,989.5
2019-06-26T10:15:19.905Z,989.6
2019-06-26T10:16:21.236Z,989.5
2019-06-26T10:17:22.514Z,989.4
2019-06-26T10:18:23.785Z,989.5
2019-06-26T10:19:25.067Z,989.5
2019-06-26T10:20:29.892Z,989.5
2019-06-26T10:21:31.203Z,989.5
2019-06-26T10:22:32.524Z,989.5
2019-06-26T10:23:33.827Z,989.5
2019-06-26T10:24:35.083Z,989.5
2019-06-26T10:25:36.473Z,989.5
2019-06-26T10:26:37.829Z,989.5
2019-06-26T10:27:39.329Z,989.5
2019-06-26T10:28:40.646Z,989.5
2019-06-26T10:29:41.953Z,989.5
2019-06-26T10:30:43.332Z,989.6
2019-06-26T10:31:44.623Z,989.5
2019-06-26T10:32:45.937Z,989.5
2019-06-26T10:33:47.240Z,989.5
2019-06-26T10:34:48.563Z,989.5
2019-06-26T10:35:49.925Z,989.5
2019-06-26T10:36:51.244Z,989.3
2019-06-26T10:37:52.531Z,989.5
2019-06-26T10:38:53.843Z,989.4
2019-06-26T10:39:55.135Z,989.5
2019-06-26T10:40:56.559Z,989.5
2019-06-26T10:41:58.723Z,989.5
2019-06-26T10:43:00.049Z,989.5
2019-06-26T10:44:01.465Z,989.5
2019-06-26T10:45:02.789Z,989.5
2019-06-26T10:46:04.098Z,989.5
2019-06-26T10:47:05.406Z,989.5
2019-06-26T10:48:06.818Z,989.5
2019-06-26T10:49:08.122Z,989.5
2019-06-26T10:50:09.555Z,989.5
2019-06-26T10:51:10.905Z,989.5
2019-06-26T10:52:12.173Z,989.4
2019-06-26T10:53:13.583Z,989.5
2019-06-26T10:54:14.902Z,989.5
2019-06-26T10:55:16.196Z,989.4
2019-06-26T10:56:17.719Z,989.4
2019-06-26T10:57:19.267Z,989.4
2019-06-26T10:58:20.535Z,989.4
2019-06-26T10:59:21.833Z,989.4
2019-06-26T11:00:23.116Z,989.4
2019-06-26T11:01:24.468Z,989.4
2019-06-26T11:02:25.769Z,989.3
2019-06-26T11:03:27.065Z,989.3
2019-06-26T11:04:28.332Z,989.4
2019-06-26T11:05:29.625Z,989.4
2019-06-26T11:06:30.979Z,989.4
2019-06-26T11:07:36.294Z,989.4
2019-06-26T11:08:37.965Z,989.4
2019-06-26T11:09:39.413Z,989.3
2019-06-26T11:10:43.181Z,989.4
2019-06-26T11:11:44.811Z,989.3
2019-06-26T11:12:49.762Z,989.3
2019-06-26T11:13:51.121Z,989.3
2019-06-26T11:14:52.429Z,989.3
2019-06-26T11:15:54.803Z,989.3
2019-06-26T11:16:56.217Z,989.2
2019-06-26T11:17:57.534Z,989.3
2019-06-26T11:18:58.818Z,989.2
2019-06-26T11:20:00.145Z,989.2
2019-06-26T11:21:02.074Z,989.3
2019-06-26T11:22:04.393Z,989.2
2019-06-26T11:23:05.736Z,989.2
2019-06-26T11:24:07.129Z,989.3
2019-06-26T11:25:08.399Z,989.3
2019-06-26T11:26:09.819Z,989.2
2019-06-26T11:27:11.175Z,989.2
2019-06-26T11:28:12.435Z,989.2
2019-06-26T11:29:13.832Z,989.2
2019-06-26T11:30:17.322Z,989.2
2019-06-26T11:31:19.718Z,989.1
2019-06-26T11:32:21.085Z,989.2
2019-06-26T11:33:22.384Z,989.1
2019-06-26T11:34:23.729Z,989.2
2019-06-26T11:35:25.045Z,989.2
2019-06-26T11:36:26.339Z,989.1
2019-06-26T11:37:27.655Z,989.2
2019-06-26T11:38:28.972Z,989.2
2019-06-26T11:39:30.293Z,989.1
2019-06-26T11:40:31.589Z,989.2
2019-06-26T11:41:32.869Z,989.2
2019-06-26T11:42:34.198Z,989.2
2019-06-26T11:43:35.608Z,989.2
2019-06-26T11:44:36.906Z,989.1
2019-06-26T11:45:38.193Z,989.1
2019-06-26T11:46:39.654Z,989.1
2019-06-26T11:47:41.013Z,989.2
2019-06-26T11:48:42.295Z,989.1
2019-06-26T11:50:00.463Z,989.1
2019-06-26T11:51:01.902Z,989.2
2019-06-26T11:52:03.236Z,989.1
2019-06-26T11:53:04.721Z,989.2
2019-06-26T11:54:06.395Z,989.1
2019-06-26T11:55:07.682Z,989.1
2019-06-26T11:56:09.052Z,989.2
2019-06-26T11:57:10.353Z,989.1
2019-06-26T11:58:11.643Z,989.1
2019-06-26T11:59:12.911Z,989
2019-06-26T12:00:14.178Z,989.1
2019-06-26T12:01:15.447Z,989.1
2019-06-26T12:02:16.723Z,989.1
2019-06-26T12:03:18.072Z,989.1
2019-06-26T12:04:19.482Z,989.1
2019-06-26T12:05:20.755Z,989.1
2019-06-26T12:06:22.042Z,989.1
2019-06-26T12:07:23.332Z,989.1
2019-06-26T12:08:24.660Z,989.1
2019-06-26T12:09:27.172Z,989.1
2019-06-26T12:10:28.485Z,989
2019-06-26T12:11:29.778Z,989.1
2019-06-26T12:12:31.088Z,989.1
2019-06-26T12:13:34.281Z,989.1
2019-06-26T12:14:35.586Z,989.2
2019-06-26T12:15:36.886Z,989.1
2019-06-26T12:16:38.243Z,989.1
2019-06-26T12:17:39.563Z,989.1
2019-06-26T12:18:40.919Z,989.2
2019-06-26T12:19:42.211Z,989.1
2019-06-26T12:20:43.509Z,989.1
2019-06-26T12:21:44.827Z,989.1
2019-06-26T12:22:46.185Z,989.1
2019-06-26T12:23:47.887Z,989.2
2019-06-26T12:24:49.475Z,989.2
2019-06-26T12:25:51.096Z,989.1
2019-06-26T12:26:52.442Z,989.1
2019-06-26T12:27:53.698Z,989
2019-06-26T12:28:55.024Z,989.1
2019-06-26T12:29:56.315Z,989.1
2019-06-26T12:30:57.599Z,989.1
2019-06-26T12:31:58.938Z,989.2
2019-06-26T12:33:07.083Z,989.1
2019-06-26T12:34:08.686Z,989.1
2019-06-26T12:35:09.978Z,989.2
2019-06-26T12:36:11.325Z,989.1
2019-06-26T12:37:12.628Z,989.1
2019-06-26T12:38:13.910Z,989.1
2019-06-26T12:39:15.250Z,989.1
2019-06-26T12:40:16.559Z,989.1
2019-06-26T12:41:18.287Z,989.2
2019-06-26T12:42:19.588Z,989.1
2019-06-26T12:43:20.897Z,989.1
2019-06-26T12:44:22.228Z,989.1
2019-06-26T12:45:23.521Z,989.1
2019-06-26T12:46:24.836Z,989
2019-06-26T12:47:26.156Z,989.1
2019-06-26T12:48:27.481Z,989
2019-06-26T12:49:28.802Z,989
2019-06-26T12:50:36.511Z,989
2019-06-26T12:51:38.391Z,989.1
2019-06-26T12:52:39.711Z,989
2019-06-26T12:53:41.030Z,989
2019-06-26T12:54:42.396Z,989
2019-06-26T12:55:43.656Z,989
2019-06-26T12:56:44.951Z,989
2019-06-26T12:57:46.232Z,989
2019-06-26T12:58:47.535Z,989
2019-06-26T12:59:58.354Z,989
2019-06-26T13:00:59.718Z,989
2019-06-26T13:02:01.181Z,989
2019-06-26T13:03:02.509Z,989
2019-06-26T13:04:03.804Z,989
2019-06-26T13:05:05.120Z,989
2019-06-26T13:06:06.533Z,989.1
2019-06-26T13:07:07.863Z,989
2019-06-26T13:08:09.182Z,989
2019-06-26T13:09:10.593Z,989
2019-06-26T13:10:12.020Z,989
2019-06-26T13:11:13.315Z,989
2019-06-26T13:12:14.589Z,989
2019-06-26T13:13:15.896Z,989
2019-06-26T13:14:17.193Z,989
2019-06-26T13:15:18.498Z,989
2019-06-26T13:16:19.814Z,989.1
2019-06-26T13:17:21.138Z,988.9
2019-06-26T13:18:22.437Z,989.1
2019-06-26T13:19:23.807Z,989